Aviation Digital Data Service (ADDS)

Output produced by METARs form (1925 UTC 20 December 2014)
found at http://www.aviationweather.gov/adds/metars/
 
KIPT 201854Z 27003KT 10SM OVC030 01/M07 A3023 RMK AO2 SLP244 T00061067
KIPT 201833Z 25005KT 10SM OVC030 01/M07 A3023 RMK AO2 T00061067
KIPT 201754Z 30005KT 10SM OVC029 01/M07 A3024 RMK AO2 SLP246 T00061067 10006 21011 56021
KIPT 201654Z 01004KT 10SM OVC027 01/M07 A3025 RMK AO2 SLP250 T00061067
KIPT 201554Z 33004KT 10SM OVC027 00/M07 A3028 RMK AO2 SLP260 T00001067
KIPT 201454Z 31003KT 10SM OVC027 00/M07 A3030 RMK AO2 SLP267 T00001067 53016
KIPT 201354Z 34005KT 10SM OVC027 M01/M07 A3028 RMK AO2 SLP260 T10061072
KIPT 201254Z 29004KT 10SM OVC028 M01/M07 A3026 RMK AO2 SLP251 T10061067
KIPT 201208Z 25004KT 10SM OVC029 M01/M07 A3026 RMK AO2 T10111067
KIPT 201154Z 26004KT 10SM OVC030 M01/M07 A3025 RMK AO2 SLP251 T10111067 11006 21011 50007
KIPT 201054Z AUTO 27004KT 10SM OVC030 M01/M07 A3026 RMK AO2 SLP252 T10111067
KIPT 200954Z AUTO 27006KT 10SM OVC030 M01/M07 A3025 RMK AO2 SLP248 T10061067
KIPT 200945Z AUTO 27005KT 10SM OVC030 M01/M07 A3024 RMK AO2 T10061072
KIPT 200854Z AUTO 27005KT 10SM OVC029 M01/M07 A3023 RMK AO2 SLP244 T10061072 53009
KIPT 200754Z AUTO 33003KT 10SM OVC029 M01/M07 A3022 RMK AO2 SLP239 T10061072
KIPT 200654Z AUTO 32005KT 10SM OVC029 M01/M08 A3021 RMK AO2 SLP235 T10111078
KIPT 200650Z AUTO 33004KT 10SM OVC029 M01/M08 A3021 RMK AO2
KIPT 200554Z AUTO 32007KT 10SM OVC031 M01/M08 A3022 RMK AO2 SLP237 T10111083 10006 21011 58002
KIPT 200454Z AUTO 33011KT 10SM OVC032 M01/M08 A3022 RMK AO2 SLP240 T10061078 400331006
KIPT 200354Z AUTO 29006KT 10SM OVC040 00/M08 A3023 RMK AO2 SLP243 T00001078
KIPT 200254Z 31009KT 10SM SCT034 OVC043 01/M07 A3022 RMK AO2 SLP240 T00061072 53009
KIPT 200154Z 30008KT 10SM FEW036 OVC043 01/M07 A3021 RMK AO2 SLP234 T00061072
KIPT 200054Z 30006KT 10SM OVC042 01/M07 A3019 RMK AO2 SLP228 T00061067
KIPT 192354Z 33007KT 10SM OVC042 01/M07 A3019 RMK AO2 SLP230 T00061067 10028 20006 53020
KIPT 192254Z 32008KT 10SM OVC042 01/M07 A3018 RMK AO2 SLP224 T00111067
KIPT 192154Z 30006KT 10SM OVC035 01/M07 A3015 RMK AO2 SLP215 T00111067
KIPT 192054Z 33008G16KT 10SM OVC036 02/M07 A3014 RMK AO2 SLP210 T00171067 51014
KIPT 191954Z 33009KT 10SM OVC038 02/M07 A3012 RMK AO2 SLP205 T00171067
KIPT 191854Z 30011KT 10SM OVC034 02/M06 A3011 RMK AO2 SLP202 T00221061
KIPT 191754Z 32009KT 10SM OVC037 03/M07 A3009 RMK AO2 SLP196 T00281067 10033 20011 56010
KIPT 191654Z 30012KT 10SM OVC036 03/M07 A3010 RMK AO2 SLP197 T00281067
KIPT 191554Z 30013KT 10SM OVC037 02/M07 A3012 RMK AO2 SLP204 T00221067
KIPT 191454Z 29011KT 10SM OVC033 02/M07 A3013 RMK AO2 SLP206 T00171067 53022
KIPT 191354Z 29011KT 10SM OVC031 01/M06 A3010 RMK AO2 SLP198 T00111061
KIPT 191254Z 29007KT 10SM OVC031 01/M06 A3008 RMK AO2 SLP189 T00111056
KIPT 191214Z 30006KT 10SM OVC030 01/M05 A3006 RMK AO2 T00111050
KIPT 191154Z 30007KT 10SM OVC028 01/M05 A3006 RMK AO2 SLP183 T00111050 10011 20011 53009
KIPT 191132Z 31009KT 10SM OVC028 01/M05 A3005 RMK AO2 T00111050
KIPT 191054Z AUTO 29009G17KT 10SM OVC033 01/M04 A3004 RMK AO2 SLP178 T00111044
KIPT 190954Z AUTO 28006KT 10SM OVC032 01/M03 A3003 RMK AO2 SLP175 T00111033
KIPT 190854Z AUTO 27007KT 10SM BKN031 OVC035 01/M03 A3003 RMK AO2 SLP174 T00111033 51001
KIPT 190845Z AUTO 27007KT 10SM OVC031 01/M03 A3003 RMK AO2 T00111033
KIPT 190754Z AUTO 27008KT 10SM OVC026 01/M03 A3003 RMK AO2 SLP174 T00111033